Grays, United Kingdom
Current Conditions -  °F | °C
As of 8:20 PM on Thursday 18 Dec 2014 (Local Time) from EGLC Reporting Station
Broken Clouds Broken Clouds  
Wind Chill: 57°   Ceiling: 1600
Heat Index: 57°   Visibility: 6mi
Dew Point: 50°   Wind: 20mph
Humidity: 77%   Direction: 250°WSW
Pressure: 29.83"   Gusts: 31mph
Location:  51.48°N, 0.33°E
Report Text: EGLC 182020Z 25017G27KT 9999 BKN016 14/10 Q1010
Loading
Personal Weather Stations






























Interactive Weather Map New forecast layout! Learn more

10-Day Weather Forecast

Advertisements
Track Severe Weather on mobile